createdAt,value
2018-12-06T00:02:39.838Z,0.80
2018-12-06T00:05:46.778Z,0.47
2018-12-06T00:08:53.530Z,0.60
2018-12-06T00:12:19.622Z,0.70
2018-12-06T00:15:39.243Z,0.50
2018-12-06T00:18:56.219Z,0.60
2018-12-06T00:22:03.483Z,0.40
2018-12-06T00:25:10.225Z,0.83
2018-12-06T00:28:17.061Z,1.00
2018-12-06T00:31:22.999Z,0.40
2018-12-06T00:34:29.841Z,2.30
2018-12-06T00:37:36.687Z,0.40
2018-12-06T00:40:44.235Z,0.70
2018-12-06T00:43:51.397Z,0.57
2018-12-06T00:46:58.373Z,0.60
2018-12-06T00:50:17.411Z,0.30
2018-12-06T00:53:24.491Z,0.40
2018-12-06T00:56:31.234Z,0.50
2018-12-06T00:59:50.410Z,0.33
2018-12-06T01:02:57.162Z,0.40
2018-12-06T01:06:04.497Z,0.40
2018-12-06T01:09:11.251Z,0.43
2018-12-06T01:12:18.423Z,0.70
2018-12-06T01:15:27.402Z,0.50
2018-12-06T01:18:34.151Z,0.53
2018-12-06T01:21:53.240Z,0.60
2018-12-06T01:25:00.182Z,0.43
2018-12-06T01:28:07.031Z,0.70
2018-12-06T01:31:28.179Z,0.63
2018-12-06T01:34:35.051Z,0.40
2018-12-06T01:37:41.900Z,0.90
2018-12-06T01:40:48.979Z,0.40
2018-12-06T01:44:10.150Z,0.60
2018-12-06T01:47:17.089Z,0.47
2018-12-06T01:50:24.362Z,0.90
2018-12-06T01:53:31.102Z,1.37
2018-12-06T01:56:38.067Z,0.37
2018-12-06T01:59:56.922Z,0.43
2018-12-06T02:03:03.760Z,0.40
2018-12-06T02:06:10.534Z,0.50
2018-12-06T02:09:29.598Z,1.30
2018-12-06T02:12:36.859Z,1.07
2018-12-06T02:15:43.815Z,0.77
2018-12-06T02:18:50.566Z,0.60
2018-12-06T02:22:09.530Z,0.83
2018-12-06T02:25:16.295Z,0.53
2018-12-06T02:28:23.038Z,0.50
2018-12-06T02:31:42.198Z,0.37
2018-12-06T02:34:49.055Z,0.40
2018-12-06T02:37:55.830Z,0.40
2018-12-06T02:41:14.921Z,0.80
2018-12-06T02:44:21.772Z,0.47
2018-12-06T02:47:28.584Z,0.70
2018-12-06T02:50:35.918Z,0.50
2018-12-06T02:53:42.765Z,0.67
2018-12-06T02:57:02.090Z,0.83
2018-12-06T03:00:09.278Z,0.30
2018-12-06T03:03:16.039Z,0.70
2018-12-06T03:06:23.014Z,0.43
2018-12-06T03:09:29.871Z,0.40
2018-12-06T03:12:49.588Z,1.13
2018-12-06T03:16:09.002Z,0.50
2018-12-06T03:19:16.289Z,0.33
2018-12-06T03:22:23.038Z,0.40
2018-12-06T03:25:30.019Z,0.50
2018-12-06T03:28:36.875Z,0.50
2018-12-06T03:31:58.116Z,0.63
2018-12-06T03:35:05.189Z,0.93
2018-12-06T03:38:11.951Z,0.97
2018-12-06T03:41:18.806Z,0.50
2018-12-06T03:44:37.989Z,0.67
2018-12-06T03:47:44.747Z,0.70
2018-12-06T03:50:51.728Z,0.40
2018-12-06T03:54:10.692Z,0.60
2018-12-06T03:57:17.562Z,0.60
2018-12-06T04:00:24.313Z,0.57
2018-12-06T04:03:43.363Z,0.60
2018-12-06T04:06:50.209Z,0.67
2018-12-06T04:10:04.015Z,0.30
2018-12-06T04:13:10.876Z,0.67
2018-12-06T04:16:17.870Z,0.30
2018-12-06T04:19:36.891Z,0.60
2018-12-06T04:22:43.652Z,0.40
2018-12-06T04:25:50.637Z,0.63
2018-12-06T04:29:09.579Z,1.03
2018-12-06T04:32:17.536Z,0.40
2018-12-06T04:35:24.723Z,0.73
2018-12-06T04:38:43.866Z,0.50
2018-12-06T04:41:50.606Z,1.13
2018-12-06T04:44:57.871Z,0.40
2018-12-06T04:48:04.631Z,1.00
2018-12-06T04:51:29.251Z,0.63
2018-12-06T04:54:36.106Z,0.87
2018-12-06T04:57:42.866Z,0.30
2018-12-06T05:01:01.952Z,1.07
2018-12-06T05:04:09.054Z,0.83
2018-12-06T05:07:15.734Z,0.87
2018-12-06T05:10:34.626Z,0.70
2018-12-06T05:13:41.423Z,0.97
2018-12-06T05:16:48.663Z,0.80
2018-12-06T05:19:56.214Z,0.63
2018-12-06T05:23:03.214Z,0.73
2018-12-06T05:26:10.427Z,0.83
2018-12-06T05:29:17.102Z,1.37
2018-12-06T05:32:36.198Z,0.70
2018-12-06T05:35:42.863Z,0.80
2018-12-06T05:39:05.363Z,0.67
2018-12-06T05:42:12.034Z,0.73
2018-12-06T05:45:18.847Z,1.20
2018-12-06T05:48:37.982Z,0.87
2018-12-06T05:51:45.040Z,0.70
2018-12-06T05:54:51.862Z,0.70
2018-12-06T05:58:10.662Z,1.00
2018-12-06T06:01:17.343Z,0.93
2018-12-06T06:04:24.463Z,0.57
2018-12-06T06:07:43.382Z,0.37
2018-12-06T06:10:50.072Z,1.00
2018-12-06T06:13:56.756Z,0.70
2018-12-06T06:17:18.065Z,0.60
2018-12-06T06:20:24.730Z,0.50
2018-12-06T06:23:31.427Z,0.90
2018-12-06T06:26:38.119Z,0.83
2018-12-06T06:29:44.887Z,0.60
2018-12-06T06:32:51.886Z,1.33
2018-12-06T06:36:10.801Z,1.17
2018-12-06T06:39:17.465Z,0.67
2018-12-06T06:42:39.263Z,1.27
2018-12-06T06:45:46.046Z,1.17
2018-12-06T06:48:52.824Z,0.80
2018-12-06T06:52:11.948Z,1.23
2018-12-06T06:55:18.945Z,0.70
2018-12-06T06:58:25.953Z,0.80
2018-12-06T07:01:33.288Z,1.17
2018-12-06T07:04:39.966Z,0.70
2018-12-06T07:07:59.069Z,0.80
2018-12-06T07:11:06.024Z,0.70
2018-12-06T07:14:12.688Z,0.80
2018-12-06T07:17:31.766Z,0.83
2018-12-06T07:20:38.526Z,1.23
2018-12-06T07:23:45.298Z,0.83
2018-12-06T07:27:04.458Z,0.57
2018-12-06T07:30:12.471Z,0.77
2018-12-06T07:33:19.732Z,0.60
2018-12-06T07:36:26.740Z,0.60
2018-12-06T07:39:45.975Z,0.80
2018-12-06T07:42:52.644Z,1.07
2018-12-06T07:46:05.506Z,0.80
2018-12-06T07:49:12.286Z,0.87
2018-12-06T07:52:19.292Z,0.80
2018-12-06T07:55:26.103Z,1.37
2018-12-06T07:58:32.313Z,0.83
2018-12-06T08:01:39.088Z,1.00
2018-12-06T08:04:46.084Z,1.20
2018-12-06T08:08:07.159Z,1.10
2018-12-06T08:11:13.826Z,0.97
2018-12-06T08:14:29.115Z,1.00
2018-12-06T08:17:36.183Z,1.13
2018-12-06T08:20:42.867Z,1.07
2018-12-06T08:23:49.722Z,0.77
2018-12-06T08:27:14.468Z,0.70
2018-12-06T08:30:21.366Z,1.07
2018-12-06T08:33:28.021Z,1.10
2018-12-06T08:36:47.162Z,1.00
2018-12-06T08:39:53.837Z,1.23
2018-12-06T08:43:12.630Z,2.33
2018-12-06T08:46:19.287Z,0.93
2018-12-06T08:49:26.496Z,1.10
2018-12-06T08:52:45.990Z,0.80
2018-12-06T08:55:52.651Z,1.43
2018-12-06T08:59:07.936Z,1.03
2018-12-06T09:02:14.941Z,1.20
2018-12-06T09:05:21.691Z,1.50
2018-12-06T09:08:28.675Z,0.67
2018-12-06T09:11:48.354Z,0.70
2018-12-06T09:14:55.027Z,0.87
2018-12-06T09:18:01.691Z,1.27
2018-12-06T09:21:08.882Z,0.80
2018-12-06T09:24:29.930Z,1.33
2018-12-06T09:27:36.698Z,0.80
2018-12-06T09:30:43.457Z,1.70
2018-12-06T09:34:02.648Z,0.90
2018-12-06T09:37:09.320Z,1.13
2018-12-06T09:40:16.319Z,1.10
2018-12-06T09:43:35.467Z,1.30
2018-12-06T09:46:42.655Z,0.97
2018-12-06T09:49:48.607Z,1.10
2018-12-06T09:52:55.287Z,0.93
2018-12-06T09:56:01.947Z,1.30
2018-12-06T09:59:20.971Z,1.63
2018-12-06T10:02:27.750Z,1.37
2018-12-06T10:05:34.703Z,0.93
2018-12-06T10:08:50.133Z,0.60
2018-12-06T10:11:56.126Z,1.20
2018-12-06T10:15:03.285Z,1.40
2018-12-06T10:18:09.863Z,1.37
2018-12-06T10:21:16.618Z,1.60
2018-12-06T10:24:35.595Z,2.00
2018-12-06T10:27:42.255Z,1.50
2018-12-06T10:30:49.018Z,1.37
2018-12-06T10:34:08.281Z,1.70
2018-12-06T10:37:15.289Z,1.70
2018-12-06T10:40:21.955Z,1.23
2018-12-06T10:43:46.450Z,1.40
2018-12-06T10:46:53.113Z,1.50
2018-12-06T10:50:12.375Z,1.37
2018-12-06T10:53:19.036Z,1.17
2018-12-06T10:56:26.367Z,1.37
2018-12-06T10:59:33.266Z,3.00
2018-12-06T11:02:45.159Z,2.90
2018-12-06T11:05:51.818Z,1.63
2018-12-06T11:08:58.495Z,1.80
2018-12-06T11:12:05.689Z,1.27
2018-12-06T11:15:12.353Z,1.67
2018-12-06T11:18:19.010Z,2.07
2018-12-06T11:21:38.760Z,2.00
2018-12-06T11:24:46.274Z,1.93
2018-12-06T11:28:17.442Z,1.37
2018-12-06T11:31:24.198Z,1.20
2018-12-06T11:34:30.963Z,2.17
2018-12-06T11:37:50.110Z,1.60
2018-12-06T11:40:56.802Z,2.80
2018-12-06T11:44:15.594Z,1.90
2018-12-06T11:47:22.351Z,2.50
2018-12-06T11:50:29.455Z,1.60
2018-12-06T11:53:36.232Z,2.67
2018-12-06T11:56:55.511Z,1.43
2018-12-06T12:00:02.608Z,2.73
2018-12-06T12:03:09.363Z,2.30
2018-12-06T12:06:16.132Z,1.70
2018-12-06T12:09:41.721Z,1.57
2018-12-06T12:12:48.383Z,1.63
2018-12-06T12:16:07.279Z,2.10
2018-12-06T12:19:13.926Z,2.47
2018-12-06T12:22:20.762Z,1.73
2018-12-06T12:25:45.539Z,1.93
2018-12-06T12:28:52.218Z,2.47
2018-12-06T12:32:11.010Z,1.77
2018-12-06T12:35:18.847Z,1.13
2018-12-06T12:38:38.128Z,1.97
2018-12-06T12:41:44.803Z,2.20
2018-12-06T12:44:51.663Z,1.53
2018-12-06T12:48:10.814Z,1.40
2018-12-06T12:51:17.581Z,3.00
2018-12-06T12:54:24.233Z,2.40
2018-12-06T12:57:43.462Z,1.17
2018-12-06T13:00:50.222Z,2.10
2018-12-06T13:03:56.894Z,2.17
2018-12-06T13:07:16.150Z,2.40
2018-12-06T13:10:22.927Z,1.40
2018-12-06T13:13:29.601Z,2.27
2018-12-06T13:16:50.851Z,1.60
2018-12-06T13:19:57.715Z,1.30
2018-12-06T13:23:04.374Z,1.40
2018-12-06T13:26:30.334Z,1.37
2018-12-06T13:29:37.198Z,2.27
2018-12-06T13:32:44.822Z,1.00
2018-12-06T13:35:51.701Z,2.37
2018-12-06T13:38:58.583Z,0.70
2018-12-06T13:42:05.823Z,1.80
2018-12-06T13:45:24.675Z,1.50
2018-12-06T13:48:31.335Z,1.20
2018-12-06T13:51:38.102Z,1.23
2018-12-06T13:54:57.331Z,1.53
2018-12-06T13:58:04.494Z,0.97
2018-12-06T14:01:11.922Z,1.80
2018-12-06T14:04:19.077Z,3.33
2018-12-06T14:07:25.838Z,1.17
2018-12-06T14:10:32.829Z,1.33
2018-12-06T14:13:53.651Z,1.47
2018-12-06T14:17:00.410Z,1.57
2018-12-06T14:20:08.930Z,1.20
2018-12-06T14:23:16.216Z,2.97
2018-12-06T14:26:37.105Z,1.60
2018-12-06T14:29:43.787Z,1.57
2018-12-06T14:32:50.661Z,1.53
2018-12-06T14:36:11.780Z,1.00
2018-12-06T14:39:18.552Z,1.87
2018-12-06T14:42:25.325Z,1.40
2018-12-06T14:45:45.165Z,2.30
2018-12-06T14:49:04.699Z,1.53
2018-12-06T14:52:24.107Z,1.80
2018-12-06T14:55:30.833Z,1.73
2018-12-06T14:58:37.771Z,2.13
2018-12-06T15:01:44.135Z,3.10
2018-12-06T15:04:50.994Z,1.80
2018-12-06T15:07:57.754Z,1.80
2018-12-06T15:11:22.806Z,2.30
2018-12-06T15:14:28.849Z,2.00
2018-12-06T15:17:35.610Z,1.80
2018-12-06T15:20:42.807Z,2.33
2018-12-06T15:23:49.604Z,1.00
2018-12-06T15:26:56.479Z,1.90
2018-12-06T15:30:15.509Z,2.40
2018-12-06T15:33:22.291Z,2.07
2018-12-06T15:36:28.967Z,1.93
2018-12-06T15:39:36.171Z,1.30
2018-12-06T15:42:43.277Z,1.13
2018-12-06T15:45:49.966Z,2.13
2018-12-06T15:48:56.744Z,1.53
2018-12-06T15:52:03.771Z,1.43
2018-12-06T15:55:22.672Z,1.50
2018-12-06T15:58:29.458Z,1.77
2018-12-06T16:01:36.325Z,1.90
2018-12-06T16:04:43.437Z,1.50
2018-12-06T16:08:02.585Z,1.23
2018-12-06T16:11:09.886Z,1.30
2018-12-06T16:14:16.750Z,1.50
2018-12-06T16:17:23.427Z,1.23
2018-12-06T16:20:47.432Z,2.00
2018-12-06T16:23:54.091Z,1.07
2018-12-06T16:27:12.878Z,1.33
2018-12-06T16:30:19.765Z,2.07
2018-12-06T16:33:26.534Z,3.00
2018-12-06T16:36:45.523Z,1.23
2018-12-06T16:39:52.190Z,1.27
2018-12-06T16:42:58.959Z,1.80
2018-12-06T16:46:05.638Z,2.40
2018-12-06T16:49:12.551Z,1.00
2018-12-06T16:52:19.448Z,1.00
2018-12-06T16:55:26.406Z,1.23
2018-12-06T16:58:45.425Z,2.10
2018-12-06T17:01:52.231Z,2.00
2018-12-06T17:04:58.999Z,1.37
2018-12-06T17:08:23.086Z,1.20
2018-12-06T17:11:29.858Z,1.20
2018-12-06T17:14:36.867Z,2.10
2018-12-06T17:17:55.772Z,2.03
2018-12-06T17:21:02.445Z,1.13
2018-12-06T17:24:21.215Z,1.80
2018-12-06T17:27:28.971Z,1.50
2018-12-06T17:30:48.376Z,1.73
2018-12-06T17:33:55.094Z,1.10
2018-12-06T17:37:01.760Z,1.50
2018-12-06T17:40:20.959Z,2.20
2018-12-06T17:43:27.826Z,1.40
2018-12-06T17:46:34.487Z,2.07
2018-12-06T17:49:53.657Z,1.50
2018-12-06T17:53:00.322Z,1.60
2018-12-06T17:56:07.187Z,1.77
2018-12-06T17:59:26.336Z,2.00
2018-12-06T18:02:33.259Z,2.47
2018-12-06T18:05:40.032Z,1.00
2018-12-06T18:08:59.038Z,1.47
2018-12-06T18:12:05.826Z,2.10
2018-12-06T18:15:12.594Z,1.30
2018-12-06T18:18:31.730Z,1.10
2018-12-06T18:21:38.718Z,0.53
2018-12-06T18:24:45.388Z,1.50
2018-12-06T18:28:04.738Z,1.27
2018-12-06T18:31:11.491Z,1.43
2018-12-06T18:34:23.181Z,2.20
2018-12-06T18:37:30.674Z,0.87
2018-12-06T18:40:37.342Z,1.37
2018-12-06T18:43:58.327Z,0.80
2018-12-06T18:47:05.259Z,1.60
2018-12-06T18:50:12.446Z,1.70
2018-12-06T18:53:19.109Z,2.00
2018-12-06T18:56:38.270Z,1.40
2018-12-06T18:59:45.042Z,1.40
2018-12-06T19:02:51.815Z,1.10
2018-12-06T19:06:11.407Z,1.60
2018-12-06T19:09:18.065Z,2.47
2018-12-06T19:12:24.973Z,1.63
2018-12-06T19:15:31.736Z,2.10
2018-12-06T19:18:51.314Z,1.73
2018-12-06T19:21:57.978Z,1.63
2018-12-06T19:25:05.008Z,2.53
2018-12-06T19:28:11.878Z,1.40
2018-12-06T19:31:18.880Z,1.63
2018-12-06T19:34:40.495Z,1.40
2018-12-06T19:37:47.783Z,1.73
2018-12-06T19:40:54.447Z,1.73
2018-12-06T19:44:01.291Z,1.90
2018-12-06T19:47:07.969Z,2.10
2018-12-06T19:50:27.112Z,1.53
2018-12-06T19:53:33.878Z,3.53
2018-12-06T19:56:40.650Z,1.93
2018-12-06T19:59:59.836Z,1.97
2018-12-06T20:03:06.607Z,1.53
2018-12-06T20:06:13.799Z,3.17
2018-12-06T20:09:20.679Z,1.77
2018-12-06T20:12:39.691Z,3.90
2018-12-06T20:15:46.941Z,1.93
2018-12-06T20:18:53.839Z,1.70
2018-12-06T20:22:00.502Z,1.90
2018-12-06T20:25:22.751Z,2.60
2018-12-06T20:28:44.505Z,3.97
2018-12-06T20:31:51.191Z,1.60
2018-12-06T20:34:57.926Z,2.73
2018-12-06T20:38:17.376Z,2.70
2018-12-06T20:41:24.142Z,2.40
2018-12-06T20:44:30.811Z,2.10
2018-12-06T20:47:50.051Z,1.90
2018-12-06T20:50:56.851Z,1.70
2018-12-06T20:54:03.918Z,2.00
2018-12-06T20:57:10.980Z,1.83
2018-12-06T21:00:26.437Z,3.07
2018-12-06T21:03:33.308Z,1.97
2018-12-06T21:06:40.047Z,1.77
2018-12-06T21:10:06.010Z,2.37
2018-12-06T21:14:21.964Z,2.60
2018-12-06T21:17:39.085Z,2.20
2018-12-06T21:20:45.885Z,2.97
2018-12-06T21:23:52.639Z,2.47
2018-12-06T21:27:11.766Z,1.53
2018-12-06T21:30:18.858Z,1.90
2018-12-06T21:33:25.526Z,2.10
2018-12-06T21:39:57.775Z,1.90
2018-12-06T21:43:04.961Z,2.20
2018-12-06T21:46:12.298Z,2.20
2018-12-06T21:49:19.082Z,2.60
2018-12-06T21:52:41.730Z,2.45
2018-12-06T21:56:00.947Z,2.17
2018-12-06T21:59:08.011Z,2.17
2018-12-06T22:02:25.918Z,1.40
2018-12-06T22:05:44.850Z,2.27
2018-12-06T22:08:51.514Z,2.50
2018-12-06T22:12:10.823Z,1.70
2018-12-06T22:15:17.733Z,2.20
2018-12-06T22:18:24.419Z,2.70
2018-12-06T22:21:31.310Z,3.07
2018-12-06T22:24:50.255Z,2.10
2018-12-06T22:27:56.918Z,2.20
2018-12-06T22:31:17.719Z,2.20
2018-12-06T22:34:24.389Z,1.40
2018-12-06T22:37:30.402Z,1.90
2018-12-06T22:40:37.074Z,2.20
2018-12-06T22:43:56.029Z,1.60
2018-12-06T22:47:02.706Z,1.80
2018-12-06T22:50:26.994Z,1.47
2018-12-06T22:53:33.713Z,1.40
2018-12-06T23:00:14.819Z,2.07
2018-12-06T23:03:35.478Z,0.90
2018-12-06T23:06:42.779Z,1.30
2018-12-06T23:09:49.447Z,1.40
2018-12-06T23:12:56.122Z,1.50
2018-12-06T23:16:02.794Z,1.17
2018-12-06T23:19:09.902Z,0.90
2018-12-06T23:22:16.603Z,1.03
2018-12-06T23:25:23.370Z,1.50
2018-12-06T23:28:30.051Z,1.30
2018-12-06T23:31:37.073Z,1.33
2018-12-06T23:34:44.468Z,1.83
2018-12-06T23:37:51.236Z,1.33
2018-12-06T23:40:58.014Z,1.47
2018-12-06T23:44:17.155Z,0.77
2018-12-06T23:47:23.934Z,0.73
2018-12-06T23:50:31.383Z,2.50
2018-12-06T23:53:38.047Z,0.93
2018-12-06T23:56:59.043Z,1.00
